Time;durP1;ratioP1;P1;durP2;ratioP2;P2;SDS_P1;SDS_P2;PMS_P1;PMS_P2;Temp;Humidity;BMP_temperature;BMP_pressure;BME280_temperature;BME280_humidity;BME280_pressure;Samples;Min_cycle;Max_cycle;Signal;HPM_P1;HPM_P2
2021/04/19 00:01:34;;;;;;;14.93;11.57;;;11.20;67.30;;;;;;5014758;28;20541;-69
2021/04/19 00:04:00;;;;;;;13.50;10.95;;;11.20;67.30;;;;;;5014999;28;20112;-69
2021/04/19 00:06:25;;;;;;;13.05;10.90;;;11.20;67.10;;;;;;5014985;28;20053;-68
2021/04/19 00:08:51;;;;;;;17.92;10.23;;;11.20;67.30;;;;;;5014700;28;20038;-69
2021/04/19 00:11:17;;;;;;;14.70;11.18;;;11.10;67.40;;;;;;5014717;28;20022;-68
2021/04/19 00:13:43;;;;;;;13.70;10.57;;;11.20;67.60;;;;;;5014753;28;20034;-68
2021/04/19 00:16:09;;;;;;;12.73;10.15;;;11.10;67.50;;;;;;5014561;28;20437;-68
2021/04/19 00:18:35;;;;;;;11.23;10.02;;;11.10;67.50;;;;;;5014929;28;20475;-68
2021/04/19 00:21:00;;;;;;;15.40;9.65;;;11.10;67.10;;;;;;5014551;28;20032;-68
2021/04/19 00:23:26;;;;;;;12.77;10.05;;;11.10;67.10;;;;;;5014683;28;20049;-68
2021/04/19 00:25:52;;;;;;;19.15;11.18;;;11.10;67.60;;;;;;5014496;28;20107;-68
2021/04/19 00:28:18;;;;;;;12.73;9.90;;;;;;;;;;5014700;28;20018;-68
2021/04/19 00:30:44;;;;;;;15.70;10.23;;;11.00;66.80;;;;;;5014037;28;20026;-68
2021/04/19 00:33:09;;;;;;;12.82;10.32;;;11.00;67.10;;;;;;5013967;28;20499;-68
2021/04/19 00:35:35;;;;;;;12.80;9.32;;;11.00;67.50;;;;;;5014371;28;20500;-68
2021/04/19 00:38:01;;;;;;;14.98;10.40;;;11.00;67.50;;;;;;5014324;28;20026;-68
2021/04/19 00:40:27;;;;;;;13.75;11.70;;;11.00;67.60;;;;;;5014183;28;20097;-68
2021/04/19 00:42:54;;;;;;;13.73;11.13;;;10.90;67.90;;;;;;5014278;28;20062;-68
2021/04/19 00:45:20;;;;;;;12.65;10.48;;;10.90;67.80;;;;;;5014047;28;20026;-68
2021/04/19 00:47:46;;;;;;;13.38;10.32;;;10.90;67.50;;;;;;5014187;28;20025;-68
2021/04/19 00:50:27;;;;;;;13.02;10.60;;;10.90;67.40;;;;;;5012658;28;20100;-69
2021/04/19 00:52:54;;;;;;;14.75;10.30;;;10.90;67.20;;;;;;5014003;28;20041;-68
2021/04/19 00:55:20;;;;;;;11.55;10.20;;;10.90;67.30;;;;;;5014002;28;20049;-69
2021/04/19 00:57:46;;;;;;;11.48;10.27;;;10.90;67.00;;;;;;5012820;28;20084;-68
2021/04/19 01:00:19;;;;;;;11.60;9.52;;;10.80;66.90;;;;;;5010602;28;20042;-68
2021/04/19 01:02:45;;;;;;;12.32;10.30;;;10.80;66.90;;;;;;5010889;28;20036;-68
2021/04/19 01:05:33;;;;;;;13.95;10.07;;;10.80;66.90;;;;;;5012429;28;20030;-69
2021/04/19 01:07:59;;;;;;;14.35;10.23;;;10.80;66.80;;;;;;5013522;28;20700;-68
2021/04/19 01:10:24;;;;;;;13.88;10.27;;;10.70;67.00;;;;;;5013565;28;20030;-67
2021/04/19 01:12:50;;;;;;;14.20;11.02;;;10.70;67.70;;;;;;5013373;28;20026;-68
2021/04/19 01:15:17;;;;;;;16.27;10.80;;;10.70;67.30;;;;;;5013693;28;20532;-68
2021/04/19 01:17:43;;;;;;;12.77;10.05;;;10.60;67.20;;;;;;5013715;28;20030;-69
2021/04/19 01:20:12;;;;;;;14.32;10.05;;;10.60;67.30;;;;;;5013210;28;20021;-68
2021/04/19 01:22:38;;;;;;;13.30;10.53;;;10.60;67.50;;;;;;5013352;28;20080;-68
2021/04/19 01:25:07;;;;;;;12.85;10.85;;;10.50;67.50;;;;;;5013484;28;20081;-68
2021/04/19 01:27:33;;;;;;;14.18;10.38;;;10.50;67.40;;;;;;5013117;28;20026;-68
2021/04/19 01:29:59;;;;;;;13.87;10.77;;;10.50;67.50;;;;;;5013572;28;20462;-67
2021/04/19 01:32:25;;;;;;;13.27;10.90;;;10.50;67.60;;;;;;5013313;28;20032;-68
2021/04/19 01:34:51;;;;;;;12.70;11.00;;;10.40;67.60;;;;;;5013435;28;20076;-68
2021/04/19 01:37:16;;;;;;;15.30;11.55;;;10.40;67.90;;;;;;5013154;28;20401;-67
2021/04/19 01:39:43;;;;;;;15.68;10.27;;;10.40;67.90;;;;;;5013259;28;20033;-68
2021/04/19 01:42:09;;;;;;;14.30;11.40;;;10.40;68.00;;;;;;5013725;28;20030;-69
2021/04/19 01:44:35;;;;;;;14.43;10.10;;;10.40;68.20;;;;;;5012804;28;20026;-68
2021/04/19 01:47:01;;;;;;;11.40;9.90;;;10.40;68.10;;;;;;5013100;28;20034;-68
2021/04/19 01:49:30;;;;;;;15.63;9.87;;;10.30;67.80;;;;;;5013179;28;20033;-69
2021/04/19 01:51:55;;;;;;;12.23;10.80;;;10.30;67.80;;;;;;5012483;28;20506;-68
2021/04/19 01:54:22;;;;;;;15.25;10.02;;;10.30;68.20;;;;;;5012893;28;20069;-67
2021/04/19 01:56:48;;;;;;;13.38;10.48;;;10.30;67.90;;;;;;5013127;28;20037;-68
2021/04/19 01:59:14;;;;;;;11.77;10.23;;;10.30;67.90;;;;;;5012725;28;20053;-67
2021/04/19 02:01:50;;;;;;;13.57;10.48;;;10.30;68.00;;;;;;5012957;28;20426;-68
2021/04/19 02:05:00;;;;;;;12.50;10.77;;;10.30;68.20;;;;;;5013156;28;20081;-68
2021/04/19 02:07:51;;;;;;;11.87;10.27;;;10.20;67.90;;;;;;4952656;29;20023;-68
2021/04/19 02:10:29;;;;;;;12.90;10.30;;;10.10;68.00;;;;;;5010848;28;20042;-68
2021/04/19 02:12:59;;;;;;;12.73;10.47;;;10.10;68.10;;;;;;5015367;28;20025;-68
2021/04/19 02:15:34;;;;;;;12.33;10.70;;;10.00;68.30;;;;;;5016746;28;20033;-68
2021/04/19 02:18:27;;;;;;;13.00;10.20;;;10.00;68.40;;;;;;5016943;28;20033;-67
2021/04/19 02:21:01;;;;;;;14.32;10.38;;;10.00;68.70;;;;;;5017004;28;20022;-67
2021/04/19 02:23:39;;;;;;;12.47;10.50;;;10.00;68.40;;;;;;5016767;28;20018;-68
2021/04/19 02:26:25;;;;;;;14.93;10.98;;;9.90;68.70;;;;;;5016586;28;20083;-69
2021/04/19 02:29:06;;;;;;;14.00;10.70;;;9.90;68.50;;;;;;5016453;28;20038;-68
2021/04/19 02:31:40;;;;;;;14.73;10.50;;;9.90;68.60;;;;;;5016403;28;20030;-68
2021/04/19 02:34:09;;;;;;;14.67;11.13;;;9.90;68.30;;;;;;5016477;28;20500;-68
2021/04/19 02:36:36;;;;;;;13.23;10.87;;;9.90;68.20;;;;;;5016739;28;20025;-69
2021/04/19 02:39:04;;;;;;;12.83;11.07;;;9.80;68.30;;;;;;5016700;28;20029;-67
2021/04/19 02:41:31;;;;;;;14.40;10.37;;;9.80;68.40;;;;;;5016316;28;20022;-68
2021/04/19 02:43:58;;;;;;;13.07;11.07;;;9.80;69.20;;;;;;5016364;28;20101;-68
2021/04/19 02:46:27;;;;;;;12.37;10.67;;;9.80;69.30;;;;;;5016224;28;20504;-68
2021/04/19 02:48:53;;;;;;;15.33;10.63;;;9.70;69.20;;;;;;5016433;28;20013;-69
2021/04/19 02:51:19;;;;;;;13.20;10.23;;;9.60;69.10;;;;;;5015942;28;20058;-68
2021/04/19 02:53:48;;;;;;;11.83;10.33;;;9.60;69.30;;;;;;5016153;28;20492;-68
2021/04/19 02:56:14;;;;;;;13.53;10.93;;;9.60;69.20;;;;;;5016109;28;20077;-68
2021/04/19 02:58:49;;;;;;;12.60;10.53;;;9.50;69.30;;;;;;5016162;28;20025;-68
2021/04/19 03:01:21;;;;;;;17.13;10.53;;;9.60;69.10;;;;;;5016202;28;20374;-68
2021/04/19 03:03:48;;;;;;;15.27;10.27;;;9.60;68.80;;;;;;5016072;28;20462;-69
2021/04/19 03:06:16;;;;;;;12.43;10.70;;;9.50;69.00;;;;;;5015796;28;20427;-68
2021/04/19 03:08:49;;;;;;;12.57;9.87;;;9.50;69.50;;;;;;5015717;28;20026;-69
2021/04/19 03:11:33;;;;;;;11.33;9.70;;;9.50;69.40;;;;;;5015882;28;20030;-68
2021/04/19 03:14:02;;;;;;;12.20;9.77;;;9.40;69.10;;;;;;5016000;28;20045;-68
2021/04/19 03:16:30;;;;;;;11.60;9.97;;;9.40;69.20;;;;;;5015580;28;20026;-68
2021/04/19 03:18:57;;;;;;;15.60;10.23;;;9.40;69.60;;;;;;5015672;28;20030;-68
2021/04/19 03:21:25;;;;;;;11.93;10.30;;;9.40;69.90;;;;;;5015721;28;20477;-68
2021/04/19 03:23:56;;;;;;;13.57;10.57;;;9.40;69.30;;;;;;5014592;28;20022;-68
2021/04/19 03:26:26;;;;;;;11.13;9.50;;;9.30;68.90;;;;;;5015175;28;20030;-69
2021/04/19 03:28:53;;;;;;;12.60;10.47;;;9.30;69.50;;;;;;5015176;28;20390;-69
2021/04/19 03:31:43;;;;;;;13.80;10.40;;;9.30;69.10;;;;;;5015399;28;20022;-68
2021/04/19 03:34:12;;;;;;;15.13;10.13;;;9.20;69.30;;;;;;5014473;28;20461;-68
2021/04/19 03:36:41;;;;;;;15.17;10.33;;;9.20;69.60;;;;;;5015476;28;20127;-68
2021/04/19 03:39:08;;;;;;;16.70;10.50;;;9.20;69.90;;;;;;5015311;28;20049;-69
2021/04/19 03:41:40;;;;;;;14.33;10.40;;;9.20;69.90;;;;;;5015165;28;20076;-68
2021/04/19 03:44:09;;;;;;;17.27;10.53;;;9.20;69.90;;;;;;5015205;28;20445;-68
2021/04/19 03:46:36;;;;;;;14.80;11.40;;;9.20;69.80;;;;;;5014710;28;20026;-68
2021/04/19 03:49:12;;;;;;;13.43;10.87;;;9.20;69.60;;;;;;5015050;28;20409;-68
2021/04/19 03:51:40;;;;;;;13.57;10.77;;;9.10;70.00;;;;;;5015032;28;20049;-68
2021/04/19 03:54:08;;;;;;;16.03;11.23;;;9.10;70.00;;;;;;5015313;28;20053;-68
2021/04/19 03:56:35;;;;;;;14.23;10.60;;;9.10;70.20;;;;;;5014885;28;20034;-68
2021/04/19 03:59:04;;;;;;;14.07;10.77;;;9.10;70.40;;;;;;5014684;28;20030;-68
2021/04/19 04:01:33;;;;;;;13.43;10.37;;;9.00;70.00;;;;;;5014664;28;20477;-67
2021/04/19 04:03:59;;;;;;;15.80;10.57;;;9.10;69.40;;;;;;5015069;28;20494;-68
2021/04/19 04:06:26;;;;;;;14.07;10.63;;;9.00;69.30;;;;;;5014998;28;20059;-68
2021/04/19 04:08:52;;;;;;;13.33;10.77;;;9.00;70.30;;;;;;5014871;28;20018;-68
2021/04/19 04:11:19;;;;;;;13.23;10.70;;;8.90;70.40;;;;;;5014871;28;20026;-69
2021/04/19 04:13:45;;;;;;;14.20;10.43;;;9.00;70.70;;;;;;5014733;28;20436;-67
2021/04/19 04:16:11;;;;;;;14.63;10.90;;;8.90;70.30;;;;;;5014625;28;20156;-68
2021/04/19 04:18:36;;;;;;;14.77;11.20;;;8.80;70.30;;;;;;5014639;28;20050;-68
2021/04/19 04:21:03;;;;;;;16.17;10.73;;;8.80;71.30;;;;;;5014437;28;20378;-70
2021/04/19 04:23:29;;;;;;;14.27;11.17;;;8.70;71.20;;;;;;5014646;28;20029;-67
2021/04/19 04:25:55;;;;;;;18.20;11.20;;;8.70;71.80;;;;;;5014755;28;20386;-68
2021/04/19 04:28:21;;;;;;;21.60;12.03;;;8.70;71.80;;;;;;5014630;28;20029;-68
2021/04/19 04:30:47;;;;;;;14.50;10.67;;;8.70;71.50;;;;;;5014429;28;20026;-67
2021/04/19 04:33:13;;;;;;;16.73;11.47;;;8.70;71.10;;;;;;5014185;28;20413;-68
2021/04/19 04:35:39;;;;;;;15.47;10.83;;;8.70;71.80;;;;;;5014481;28;20030;-68
2021/04/19 04:38:05;;;;;;;16.97;11.13;;;8.70;71.70;;;;;;5014564;28;20030;-68
2021/04/19 04:40:32;;;;;;;17.53;10.77;;;8.70;71.40;;;;;;5014272;28;20109;-68
2021/04/19 04:43:26;;;;;;;17.33;12.20;;;8.70;71.70;;;;;;5014205;28;20471;-68
2021/04/19 04:45:58;;;;;;;14.40;11.00;;;8.70;71.60;;;;;;5012358;28;20026;-67
2021/04/19 04:48:41;;;;;;;17.10;13.17;;;8.70;71.40;;;;;;5014213;28;20034;-68
2021/04/19 04:51:13;;;;;;;18.30;11.80;;;8.70;71.50;;;;;;5013785;28;20053;-68
2021/04/19 04:53:49;;;;;;;24.33;11.10;;;8.70;71.90;;;;;;5013686;28;20030;-68
2021/04/19 04:56:17;;;;;;;17.97;11.63;;;8.70;71.40;;;;;;5014126;28;20105;-69
2021/04/19 04:58:45;;;;;;;23.97;11.77;;;8.60;71.00;;;;;;5013941;28;20091;-67
2021/04/19 05:01:11;;;;;;;22.10;10.90;;;8.60;71.40;;;;;;5013826;28;20069;-69
2021/04/19 05:03:39;;;;;;;29.27;11.57;;;8.60;71.50;;;;;;5013811;28;20057;-68
2021/04/19 05:06:09;;;;;;;22.97;11.40;;;8.70;71.30;;;;;;5013745;28;20101;-69
2021/04/19 05:08:41;;;;;;;25.80;11.30;;;8.70;70.70;;;;;;5014207;28;20053;-68
2021/04/19 05:11:08;;;;;;;21.25;10.88;;;8.70;70.70;;;;;;5014032;28;20037;-68
2021/04/19 05:13:34;;;;;;;15.20;11.63;;;8.80;70.80;;;;;;5013768;28;20121;-67
2021/04/19 05:16:01;;;;;;;26.07;11.90;;;8.80;70.60;;;;;;5013880;28;20105;-68
2021/04/19 05:18:27;;;;;;;41.07;12.40;;;8.80;70.50;;;;;;5013657;28;20100;-69
2021/04/19 05:20:54;;;;;;;19.30;10.97;;;8.80;70.60;;;;;;5013702;28;20425;-67
2021/04/19 05:23:21;;;;;;;19.10;10.13;;;8.90;70.30;;;;;;5013460;28;20080;-68
2021/04/19 05:25:47;;;;;;;22.37;10.17;;;8.90;70.50;;;;;;5013829;28;20036;-68
2021/04/19 05:28:13;;;;;;;21.17;10.57;;;8.90;70.60;;;;;;5013680;28;20029;-68
2021/04/19 05:30:41;;;;;;;24.27;11.00;;;8.90;70.30;;;;;;5013518;28;20025;-68
2021/04/19 05:33:08;;;;;;;21.20;10.93;;;9.00;70.30;;;;;;5013506;28;20075;-69
2021/04/19 05:35:35;;;;;;;21.87;10.80;;;9.00;70.30;;;;;;5013355;28;20034;-67
2021/04/19 05:38:03;;;;;;;16.70;10.93;;;9.00;70.60;;;;;;5013526;28;20049;-68
2021/04/19 05:40:31;;;;;;;16.70;10.80;;;9.00;70.50;;;;;;5013504;28;20079;-68
2021/04/19 05:43:02;;;;;;;18.60;11.13;;;9.10;71.00;;;;;;5013326;28;20378;-69
2021/04/19 05:45:29;;;;;;;14.60;11.53;;;9.10;71.00;;;;;;5012977;28;20022;-68
2021/04/19 05:47:55;;;;;;;18.40;12.10;;;9.10;71.50;;;;;;5012744;28;20026;-68
2021/04/19 05:50:23;;;;;;;15.83;10.87;;;9.20;71.60;;;;;;5012798;28;20385;-69
2021/04/19 05:52:52;;;;;;;19.23;12.07;;;9.20;71.70;;;;;;5013019;28;20065;-68
2021/04/19 05:55:22;;;;;;;18.00;11.27;;;9.20;71.80;;;;;;5013059;28;20037;-70
2021/04/19 05:57:59;;;;;;;23.30;12.33;;;9.30;71.70;;;;;;5013063;28;20030;-68
2021/04/19 06:00:35;;;;;;;18.20;12.43;;;9.30;71.60;;;;;;5012837;28;20055;-69
2021/04/19 06:03:10;;;;;;;26.83;12.37;;;9.40;72.00;;;;;;5012733;28;20034;-69
2021/04/19 06:05:40;;;;;;;25.87;12.67;;;9.50;72.20;;;;;;5012921;28;20033;-69
2021/04/19 06:08:19;;;;;;;24.00;12.27;;;9.50;72.70;;;;;;5013009;28;20373;-69
2021/04/19 06:10:52;;;;;;;23.90;13.13;;;9.50;72.60;;;;;;5012943;28;20133;-69
2021/04/19 06:13:20;;;;;;;17.67;12.25;;;9.60;73.30;;;;;;5012922;28;20485;-69
2021/04/19 06:15:51;;;;;;;27.63;12.47;;;9.70;72.30;;;;;;5012955;28;20029;-69
2021/04/19 06:18:21;;;;;;;20.97;12.03;;;9.80;72.50;;;;;;5012027;28;20018;-68
2021/04/19 06:20:52;;;;;;;16.53;11.83;;;9.80;72.20;;;;;;5012496;28;20478;-68
2021/04/19 06:23:18;;;;;;;17.73;11.63;;;9.90;70.60;;;;;;5012938;28;20485;-68
2021/04/19 06:25:45;;;;;;;15.80;11.43;;;10.00;70.40;;;;;;5012892;28;20022;-67
2021/04/19 06:28:10;;;;;;;15.10;11.10;;;10.00;69.20;;;;;;5012832;28;20105;-69
2021/04/19 06:30:41;;;;;;;16.63;11.77;;;10.10;69.10;;;;;;5012150;28;20054;-69
2021/04/19 06:33:13;;;;;;;16.37;11.67;;;10.20;68.70;;;;;;5012417;28;20018;-67
2021/04/19 06:35:38;;;;;;;15.73;10.57;;;10.20;68.10;;;;;;5012732;28;20506;-67
2021/04/19 06:38:04;;;;;;;14.40;10.67;;;10.30;68.10;;;;;;5012752;28;20018;-69
2021/04/19 06:40:33;;;;;;;18.27;11.20;;;10.30;68.10;;;;;;5012910;28;20037;-67
2021/04/19 06:42:59;;;;;;;17.53;11.43;;;10.40;67.90;;;;;;5012169;28;20025;-68
2021/04/19 06:45:26;;;;;;;24.87;13.33;;;10.50;68.20;;;;;;5012809;28;20076;-68
2021/04/19 06:47:53;;;;;;;14.77;10.60;;;10.50;67.50;;;;;;5013198;28;20044;-68
2021/04/19 06:50:19;;;;;;;14.57;10.65;;;10.60;67.40;;;;;;5012509;28;20030;-68
2021/04/19 06:52:49;;;;;;;12.93;9.67;;;10.60;67.30;;;;;;5012266;28;20030;-68
2021/04/19 06:55:19;;;;;;;16.20;10.50;;;10.70;66.90;;;;;;5012419;28;20041;-68
2021/04/19 06:57:49;;;;;;;12.38;8.80;;;;;;;;;;5012829;28;20125;-72
2021/04/19 07:00:16;;;;;;;9.90;8.68;;;10.70;65.10;;;;;;5015249;28;20034;-73
2021/04/19 07:02:52;;;;;;;11.82;8.65;;;10.80;65.10;;;;;;5015903;28;20105;-72
2021/04/19 07:05:25;;;;;;;11.40;9.02;;;10.80;64.60;;;;;;5014570;28;20390;-72
2021/04/19 07:08:04;;;;;;;11.32;8.15;;;10.90;64.90;;;;;;5016083;28;20026;-71
2021/04/19 07:10:33;;;;;;;10.38;8.00;;;11.00;64.60;;;;;;5015629;28;20084;-70
2021/04/19 07:13:07;;;;;;;15.88;8.30;;;11.00;63.70;;;;;;5015700;28;20026;-69
2021/04/19 07:15:35;;;;;;;10.70;7.97;;;11.00;63.90;;;;;;5015988;28;20040;-72
2021/04/19 07:18:00;;;;;;;10.63;7.80;;;11.10;63.80;;;;;;5016000;28;20018;-70
2021/04/19 07:20:26;;;;;;;15.20;7.47;;;11.10;63.80;;;;;;5015818;28;20080;-70
2021/04/19 07:22:52;;;;;;;10.10;8.45;;;11.20;64.20;;;;;;5015530;28;20026;-71
2021/04/19 07:25:18;;;;;;;13.23;8.40;;;11.20;64.30;;;;;;5015687;28;20029;-70
2021/04/19 07:27:44;;;;;;;12.40;7.60;;;11.20;64.10;;;;;;5015461;28;20030;-70
2021/04/19 07:30:10;;;;;;;11.23;7.82;;;11.30;63.70;;;;;;5015642;28;20022;-71
2021/04/19 07:32:39;;;;;;;9.05;7.50;;;11.30;62.60;;;;;;5015242;28;20037;-69
2021/04/19 07:35:06;;;;;;;14.20;7.28;;;11.30;62.00;;;;;;5015117;28;20125;-70
2021/04/19 07:37:33;;;;;;;12.48;6.90;;;11.40;62.00;;;;;;5015742;28;20030;-71
2021/04/19 07:40:02;;;;;;;9.18;6.55;;;11.40;61.60;;;;;;5015092;28;20443;-70
2021/04/19 07:42:27;;;;;;;7.97;6.47;;;11.50;61.40;;;;;;5015396;28;20053;-71
2021/04/19 07:44:54;;;;;;;11.23;6.85;;;11.50;60.50;;;;;;5015275;28;20192;-71
2021/04/19 07:47:41;;;;;;;9.65;7.82;;;11.50;60.70;;;;;;5015368;28;20097;-71
2021/04/19 07:50:22;;;;;;;11.10;7.93;;;11.60;61.20;;;;;;5015111;28;20025;-71
2021/04/19 07:52:54;;;;;;;11.32;8.43;;;11.60;61.50;;;;;;5015085;28;20032;-71
2021/04/19 07:55:26;;;;;;;9.95;8.45;;;11.70;61.50;;;;;;5014848;28;20053;-72
2021/04/19 07:57:52;;;;;;;9.73;7.47;;;11.70;61.90;;;;;;5014634;28;20030;-69
2021/04/19 08:00:32;;;;;;;10.32;7.70;;;11.70;61.70;;;;;;5012709;28;20025;-68
2021/04/19 08:03:07;;;;;;;10.88;7.55;;;11.70;61.70;;;;;;5014616;28;20026;-68
2021/04/19 08:05:35;;;;;;;8.85;7.95;;;11.80;61.50;;;;;;5018885;28;20381;-68
2021/04/19 08:08:02;;;;;;;13.57;7.90;;;11.90;61.60;;;;;;5026860;28;20017;-68
2021/04/19 08:10:28;;;;;;;10.35;8.18;;;11.90;62.10;;;;;;5014168;28;20112;-68
2021/04/19 08:13:15;;;;;;;12.43;8.32;;;11.90;62.00;;;;;;5013787;28;20185;-68
2021/04/19 08:15:43;;;;;;;10.00;8.48;;;12.00;61.80;;;;;;5012972;28;20034;-70
2021/04/19 08:18:12;;;;;;;13.00;8.45;;;12.00;61.40;;;;;;5017051;28;20026;-68
2021/04/19 08:20:58;;;;;;;10.65;8.73;;;12.00;61.20;;;;;;5033868;28;20029;-68
2021/04/19 08:23:24;;;;;;;12.15;9.75;;;12.10;61.60;;;;;;5032793;28;20033;-68
2021/04/19 08:25:51;;;;;;;13.13;10.25;;;12.10;61.80;;;;;;5034334;28;20424;-73
2021/04/19 08:28:24;;;;;;;14.40;10.18;;;12.20;62.20;;;;;;5032641;28;20026;-68
2021/04/19 08:30:52;;;;;;;14.18;10.40;;;12.20;62.20;;;;;;5034108;28;20373;-71
2021/04/19 08:33:19;;;;;;;11.43;9.55;;;12.30;61.90;;;;;;5033580;28;20031;-68
2021/04/19 08:35:47;;;;;;;12.50;9.93;;;12.40;60.50;;;;;;5033800;28;20107;-72
2021/04/19 08:38:13;;;;;;;12.07;9.95;;;12.40;61.00;;;;;;5034125;28;20147;-69
2021/04/19 08:40:40;;;;;;;13.60;10.00;;;12.50;60.80;;;;;;5034186;28;20721;-71
2021/04/19 08:43:10;;;;;;;11.35;9.13;;;12.60;59.70;;;;;;5033708;28;20021;-68
2021/04/19 08:45:39;;;;;;;9.70;8.70;;;12.70;59.00;;;;;;5034009;28;20022;-68
2021/04/19 08:48:12;;;;;;;10.93;8.98;;;12.70;59.40;;;;;;5034059;28;20022;-68
2021/04/19 08:50:42;;;;;;;10.48;9.38;;;12.80;57.70;;;;;;5033710;28;20124;-68
2021/04/19 08:53:10;;;;;;;10.48;8.82;;;12.90;58.70;;;;;;5033351;28;20392;-68
2021/04/19 08:55:37;;;;;;;10.15;8.57;;;13.00;57.30;;;;;;5033605;28;20048;-69
2021/04/19 08:58:09;;;;;;;13.52;9.20;;;13.00;58.00;;;;;;5034066;28;20059;-68
2021/04/19 09:00:36;;;;;;;10.90;9.33;;;13.00;57.70;;;;;;5033689;28;20025;-67
2021/04/19 09:03:02;;;;;;;12.88;9.07;;;13.10;57.70;;;;;;5033673;28;20329;-68
2021/04/19 09:05:27;;;;;;;12.20;8.45;;;13.10;56.70;;;;;;5033571;28;20033;-68
2021/04/19 09:08:12;;;;;;;11.05;8.43;;;13.10;57.90;;;;;;5033577;28;20025;-68
2021/04/19 09:11:01;;;;;;;10.30;8.55;;;13.20;57.30;;;;;;5033539;28;20018;-67
2021/04/19 09:13:38;;;;;;;9.98;8.02;;;;;;;;;;5033175;28;20037;-68
2021/04/19 09:16:24;;;;;;;10.07;8.30;;;13.30;54.90;;;;;;5033392;28;20028;-68
2021/04/19 09:18:52;;;;;;;8.88;7.95;;;13.40;56.40;;;;;;5033446;28;20060;-68
2021/04/19 09:21:50;;;;;;;9.40;8.18;;;13.50;57.80;;;;;;5032637;28;20075;-68
2021/04/19 09:24:22;;;;;;;9.60;7.15;;;13.60;55.50;;;;;;5033247;28;20021;-68
2021/04/19 09:26:56;;;;;;;8.53;6.70;;;13.70;53.80;;;;;;5033087;28;20018;-68
2021/04/19 09:29:25;;;;;;;8.75;6.80;;;13.70;54.90;;;;;;5032951;28;20271;-68
2021/04/19 09:31:59;;;;;;;9.88;6.88;;;13.80;55.50;;;;;;5033085;28;20068;-66
2021/04/19 09:34:49;;;;;;;7.60;6.10;;;13.90;55.50;;;;;;5032939;28;20117;-67
2021/04/19 09:37:17;;;;;;;6.50;5.03;;;13.90;55.40;;;;;;5032979;28;20045;-67
2021/04/19 09:39:48;;;;;;;6.97;5.32;;;13.90;51.80;;;;;;5033208;28;20030;-71
2021/04/19 09:42:15;;;;;;;8.20;5.80;;;13.90;52.90;;;;;;5033041;28;20033;-71
2021/04/19 09:44:54;;;;;;;6.97;5.63;;;14.00;52.70;;;;;;5033134;28;20089;-65
2021/04/19 09:47:51;;;;;;;8.75;6.78;;;14.00;52.90;;;;;;5032873;28;20036;-66
2021/04/19 09:50:22;;;;;;;7.82;6.13;;;14.00;52.90;;;;;;5032820;28;20028;-67
2021/04/19 09:52:51;;;;;;;6.85;6.10;;;14.10;55.20;;;;;;5032772;28;20030;-71
2021/04/19 09:55:21;;;;;;;6.60;5.93;;;14.20;55.20;;;;;;5032877;28;20033;-67
2021/04/19 09:57:47;;;;;;;7.28;5.75;;;14.30;54.00;;;;;;5032784;28;20025;-67
2021/04/19 10:00:14;;;;;;;7.68;5.55;;;14.30;53.60;;;;;;5032887;28;20029;-67
2021/04/19 10:02:41;;;;;;;6.93;5.88;;;14.40;52.60;;;;;;5032748;28;20025;-67
2021/04/19 10:05:12;;;;;;;6.70;5.22;;;14.40;53.20;;;;;;5032503;28;20029;-67
2021/04/19 10:07:43;;;;;;;6.60;5.70;;;14.50;51.90;;;;;;5032679;28;20067;-67
2021/04/19 10:10:10;;;;;;;6.03;5.20;;;14.50;52.70;;;;;;5032583;28;20034;-67
2021/04/19 10:12:43;;;;;;;8.15;4.88;;;14.60;51.90;;;;;;5032957;28;20377;-68
2021/04/19 10:15:19;;;;;;;7.15;5.28;;;14.70;51.80;;;;;;5032770;28;20080;-67
2021/04/19 10:17:45;;;;;;;6.40;5.15;;;14.80;51.70;;;;;;5032704;28;20466;-67
2021/04/19 10:20:22;;;;;;;7.82;5.13;;;14.80;51.00;;;;;;5032260;28;20079;-70
2021/04/19 10:23:07;;;;;;;5.88;4.40;;;14.90;51.50;;;;;;5031692;28;20466;-68
2021/04/19 10:25:34;;;;;;;4.95;3.28;;;15.00;50.70;;;;;;5032314;28;20033;-70
2021/04/19 10:28:00;;;;;;;4.57;3.60;;;15.00;49.10;;;;;;5030882;28;20026;-70
2021/04/19 10:30:26;;;;;;;4.95;3.63;;;15.10;50.60;;;;;;5032317;28;20076;-68
2021/04/19 10:32:52;;;;;;;5.03;3.20;;;15.20;49.50;;;;;;5031714;28;20018;-68
2021/04/19 10:35:28;;;;;;;3.83;3.03;;;15.20;48.30;;;;;;5035802;28;20035;-71
2021/04/19 10:37:54;;;;;;;4.55;3.67;;;15.30;48.30;;;;;;5035710;28;20448;-67
2021/04/19 10:40:20;;;;;;;5.32;3.78;;;15.40;48.10;;;;;;5034837;28;20108;-68
2021/04/19 10:42:46;;;;;;;8.18;3.40;;;15.50;49.20;;;;;;5035227;28;20029;-68
2021/04/19 10:45:12;;;;;;;4.10;3.33;;;15.60;49.90;;;;;;5035730;28;20025;-68
2021/04/19 10:47:38;;;;;;;3.95;3.35;;;15.70;49.80;;;;;;5034495;28;20501;-67
2021/04/19 10:50:04;;;;;;;4.03;3.30;;;15.80;50.50;;;;;;5035599;28;20067;-68
2021/04/19 10:52:30;;;;;;;4.75;3.38;;;15.80;47.50;;;;;;5035955;28;20073;-68
2021/04/19 10:54:56;;;;;;;4.22;3.33;;;15.80;46.60;;;;;;5035708;28;20073;-68
2021/04/19 10:57:28;;;;;;;5.65;3.30;;;15.80;46.40;;;;;;5035797;28;20045;-68
2021/04/19 10:59:55;;;;;;;3.83;3.28;;;15.80;46.80;;;;;;5035570;28;20412;-68
2021/04/19 11:02:29;;;;;;;5.97;3.20;;;15.80;47.70;;;;;;5035827;28;20049;-67
2021/04/19 11:04:56;;;;;;;3.83;3.40;;;15.90;48.80;;;;;;5035957;28;20100;-67
2021/04/19 11:07:35;;;;;;;3.83;3.30;;;15.90;47.00;;;;;;5035592;28;20030;-68
2021/04/19 11:10:16;;;;;;;3.42;3.08;;;15.90;45.10;;;;;;5035556;28;20101;-67
2021/04/19 11:13:02;;;;;;;4.47;3.30;;;16.00;47.40;;;;;;5035079;28;20503;-68
2021/04/19 11:15:38;;;;;;;6.90;3.78;;;16.00;43.70;;;;;;5035081;28;20096;-68
2021/04/19 11:18:21;;;;;;;3.67;2.92;;;16.00;46.60;;;;;;5035483;28;20558;-68
2021/04/19 11:20:48;;;;;;;3.28;2.80;;;16.00;46.80;;;;;;5035197;28;20025;-69
2021/04/19 11:23:24;;;;;;;4.13;3.13;;;16.00;47.10;;;;;;5035146;28;20029;-69
2021/04/19 11:25:50;;;;;;;4.20;3.05;;;16.00;46.30;;;;;;5035356;28;20030;-67
2021/04/19 11:28:29;;;;;;;4.00;3.08;;;15.90;48.50;;;;;;5035329;28;20381;-67
2021/04/19 11:30:56;;;;;;;5.05;2.67;;;16.00;48.70;;;;;;5034968;28;20104;-67
2021/04/19 11:33:25;;;;;;;4.57;3.13;;;15.90;47.80;;;;;;5034788;28;20025;-68
2021/04/19 11:36:01;;;;;;;3.38;3.00;;;15.80;46.10;;;;;;5035018;28;20393;-68
2021/04/19 11:38:27;;;;;;;4.18;3.03;;;15.70;45.80;;;;;;5035159;28;20531;-68
2021/04/19 11:40:58;;;;;;;3.47;2.83;;;15.60;46.40;;;;;;5035283;28;20389;-69
2021/04/19 11:43:32;;;;;;;2.97;2.58;;;15.60;46.70;;;;;;5034932;28;20021;-68
2021/04/19 11:46:01;;;;;;;3.58;2.20;;;15.60;46.60;;;;;;5033276;28;20393;-68
2021/04/19 11:48:27;;;;;;;3.10;2.33;;;15.70;45.50;;;;;;5031777;28;20034;-68
2021/04/19 11:50:54;;;;;;;3.70;1.80;;;15.80;44.50;;;;;;5033854;28;20084;-68
2021/04/19 11:53:29;;;;;;;2.50;2.00;;;15.90;44.80;;;;;;5033387;28;20026;-68
2021/04/19 11:55:56;;;;;;;2.88;1.95;;;16.10;45.20;;;;;;5033685;28;20048;-67
2021/04/19 11:58:25;;;;;;;3.40;2.95;;;16.10;43.10;;;;;;5034335;28;20022;-68
2021/04/19 12:00:52;;;;;;;2.80;2.30;;;16.20;44.70;;;;;;5034195;28;20509;-68
2021/04/19 12:03:19;;;;;;;2.78;2.08;;;16.30;44.40;;;;;;5033093;28;20036;-70
2021/04/19 12:05:45;;;;;;;6.63;2.47;;;16.40;44.20;;;;;;5033715;28;20025;-68
2021/04/19 12:08:11;;;;;;;3.88;2.80;;;16.60;44.50;;;;;;5034258;28;20018;-68
2021/04/19 12:10:38;;;;;;;2.50;1.88;;;16.70;44.80;;;;;;5034081;28;20083;-68
2021/04/19 12:13:04;;;;;;;3.28;1.80;;;16.90;44.20;;;;;;5033744;28;20105;-68
2021/04/19 12:15:30;;;;;;;3.47;1.80;;;17.00;42.10;;;;;;5033955;28;20038;-68
2021/04/19 12:17:56;;;;;;;3.28;2.60;;;17.10;43.70;;;;;;5032592;28;20053;-68
2021/04/19 12:20:22;;;;;;;2.92;2.58;;;17.10;43.20;;;;;;5032129;28;20033;-68
2021/04/19 12:22:48;;;;;;;4.53;2.22;;;17.10;43.40;;;;;;5032606;28;20488;-68
2021/04/19 12:25:14;;;;;;;6.25;1.73;;;17.10;42.40;;;;;;5033352;28;20026;-68
2021/04/19 12:27:41;;;;;;;2.47;1.80;;;17.20;42.10;;;;;;5033780;28;20025;-68
2021/04/19 12:30:07;;;;;;;3.65;2.08;;;17.30;41.30;;;;;;5032942;28;20021;-68
2021/04/19 12:32:33;;;;;;;5.55;1.63;;;17.30;42.60;;;;;;5034459;28;20025;-68
2021/04/19 12:34:59;;;;;;;1.85;1.70;;;17.30;41.90;;;;;;5033618;28;20034;-68
2021/04/19 12:37:25;;;;;;;3.38;1.70;;;17.10;40.70;;;;;;5033922;28;20025;-68
2021/04/19 12:39:51;;;;;;;3.97;1.90;;;17.00;42.30;;;;;;5033731;28;20021;-70
2021/04/19 12:42:18;;;;;;;2.53;1.70;;;16.90;41.80;;;;;;5033980;28;20010;-71
2021/04/19 12:44:43;;;;;;;2.20;1.50;;;16.90;42.50;;;;;;5034065;28;20031;-70
2021/04/19 12:47:09;;;;;;;2.00;1.52;;;16.80;39.80;;;;;;5033956;28;20026;-68
2021/04/19 12:49:35;;;;;;;4.63;1.85;;;16.70;41.70;;;;;;5033541;28;20035;-68
2021/04/19 12:52:01;;;;;;;2.72;1.90;;;16.60;42.60;;;;;;5033546;28;20037;-70